Government of Jersey

Home Log in

Channel Islands Terminal Aerodrome Forecasts (TAFs)

Jersey Airport - EGJJ

EGJJ 211100Z 2112/2121 10005KT CAVOK=

Guernsey Airport - EGJB

EGJB 211100Z 2112/2121 08005KT CAVOK=

Alderney Airport - EGJA

EGJA 211100Z 2112/2121 08011KT 9999 FEW005 PROB30 TEMPO 2112/2114 BKN005=